Elberta, UT (84626)

1:11 AM MST on December 11, 2016 (GMT -0700)
Elberta | | Change Station

Elev 4741 ft 39.94 °N, 111.96 °W | Updated 1 minute ago

Rain
Rain
33.1 °F
Feels Like 30 °F
N
3.8
Wind Variable Wind from SSW

Today
High -- | Low -- °F
--% Chance of Precip.
Yesterday
High -- | Low -- °F
Precip. -- in
Pressure 29.97 in
Visibility 2.0 miles
Clouds Overcast 400 ft
Windchill 30 °F
Dew Point 33 °F
Humidity 98%
Rainfall 0.06 in
Snow Depth Not available.
7:39 AM 5:02 PM
Waxing Gibbous, 90% visible
SPECI KPVU 110803Z AUTO 14004KT 2SM -SN BR OVC004 00/M01 A2997 RMK AO2 VIS 1 1/4V2 1/2 CIG 003V007 P0001 FZRANO
Pressure 29.97 in
Visibility 2.0 miles
Clouds Overcast 400 ft
Windchill 30 °F
Dew Point 33 °F
Humidity 98%
Rainfall 0.06 in
Snow Depth Not available.
7:39 AM 5:02 PM
Waxing Gibbous, 90% visible
SPECI KPVU 110803Z AUTO 14004KT 2SM -SN BR OVC004 00/M01 A2997 RMK AO2 VIS 1 1/4V2 1/2 CIG 003V007 P0001 FZRANO

10-Day Weather Forecast

Almanac

Astronomy

Dec. 11, 2016 Rise Set
Actual Time
Civil Twilight
Nautical Twilight
Astronomical Twilight
Moon
Length of Visible Light
Length of Day
Tomorrow will be .
, % of the Moon is Illuminated

Today's Extremes

State Highs State Lows

Community

WunderPhotos

Upload Photos

1,956,706 photos uploaded!

WunderBlog® & News

Nearby

Air Quality

  Air Quality AQ Index Pollutant
Not available.

Snow Depth

Station Depth Elevation

Earthquake Activity

City Distance Mag. Time & Date
Minimum magnitude displayed is 2.5.

Coastal Water Temperatures

Place Temperature

Stations

Nearby Weather Stations

Station Location Temp. Windchill Dew Point Humidity Wind Precip. Elev Updated Type
                   

Watches & Warnings

There are currently no watches in effect.